createdAt,value
2018-12-12T00:00:20.243Z,1.93
2018-12-12T00:01:20.922Z,2.01
2018-12-12T00:02:21.605Z,1.93
2018-12-12T00:03:22.011Z,2.01
2018-12-12T00:04:23.137Z,1.93
2018-12-12T00:05:24.094Z,2.01
2018-12-12T00:06:25.060Z,1.88
2018-12-12T00:07:26.018Z,1.98
2018-12-12T00:08:26.698Z,1.95
2018-12-12T00:09:27.099Z,1.95
2018-12-12T00:10:27.624Z,2
2018-12-12T00:11:28.030Z,1.93
2018-12-12T00:12:28.985Z,1.89
2018-12-12T00:13:29.943Z,1.98
2018-12-12T00:14:30.412Z,1.93
2018-12-12T00:15:32.093Z,1.93
2018-12-12T00:16:32.786Z,1.86
2018-12-12T00:17:33.190Z,1.86
2018-12-12T00:18:33.597Z,1.81
2018-12-12T00:19:34.276Z,1.84
2018-12-12T00:20:34.807Z,1.97
2018-12-12T00:21:35.211Z,1.86
2018-12-12T00:22:36.612Z,1.97
2018-12-12T00:23:37.291Z,1.98
2018-12-12T00:24:37.419Z,1.92
2018-12-12T00:25:38.099Z,1.97
2018-12-12T00:26:38.222Z,1.86
2018-12-12T00:27:38.909Z,1.86
2018-12-12T00:28:39.032Z,1.86
2018-12-12T00:29:40.158Z,1.82
2018-12-12T00:30:40.710Z,1.85
2018-12-12T00:31:41.113Z,1.78
2018-12-12T00:32:41.516Z,1.84
2018-12-12T00:33:42.200Z,1.78
2018-12-12T00:34:42.599Z,1.84
2018-12-12T00:35:43.566Z,1.75
2018-12-12T00:36:44.246Z,1.81
2018-12-12T00:37:45.207Z,1.67
2018-12-12T00:38:45.887Z,1.7
2018-12-12T00:39:46.015Z,1.68
2018-12-12T00:40:47.406Z,1.66
2018-12-12T00:41:48.363Z,1.68
2018-12-12T00:42:49.323Z,1.71
2018-12-12T00:43:50.117Z,1.66
2018-12-12T00:44:51.075Z,1.7
2018-12-12T00:45:51.047Z,1.63
2018-12-12T00:46:52.448Z,1.63
2018-12-12T00:47:52.904Z,1.61
2018-12-12T00:48:54.031Z,1.68
2018-12-12T00:49:55.000Z,1.67
2018-12-12T00:50:55.813Z,1.58
2018-12-12T00:51:55.997Z,1.67
2018-12-12T00:52:56.679Z,1.53
2018-12-12T00:53:58.354Z,1.58
2018-12-12T00:54:58.764Z,1.6
2018-12-12T00:55:59.444Z,1.56
2018-12-12T00:57:00.124Z,1.6
2018-12-12T00:58:00.247Z,1.57
2018-12-12T00:59:01.374Z,1.45
2018-12-12T01:00:02.055Z,1.56
2018-12-12T01:01:03.464Z,1.6
2018-12-12T01:02:03.867Z,1.56
2018-12-12T01:03:04.991Z,1.6
2018-12-12T01:04:05.399Z,1.63
2018-12-12T01:05:07.080Z,1.53
2018-12-12T01:06:07.483Z,1.6
2018-12-12T01:07:08.731Z,1.57
2018-12-12T01:08:09.411Z,1.52
2018-12-12T01:09:10.099Z,1.56
2018-12-12T01:10:10.501Z,1.42
2018-12-12T01:11:11.342Z,1.5
2018-12-12T01:12:11.743Z,1.45
2018-12-12T01:13:12.147Z,1.48
2018-12-12T01:14:13.147Z,1.42
2018-12-12T01:15:13.552Z,1.4
2018-12-12T01:16:14.955Z,1.4
2018-12-12T01:17:15.638Z,1.43
2018-12-12T01:18:16.037Z,1.4
2018-12-12T01:19:17.442Z,1.43
2018-12-12T01:20:18.156Z,1.42
2018-12-12T01:21:18.279Z,1.43
2018-12-12T01:22:18.957Z,1.38
2018-12-12T06:30:12.674Z,0.95
2018-12-12T06:31:13.090Z,0.99
2018-12-12T06:32:14.347Z,1.02
2018-12-12T06:33:15.081Z,1.09
2018-12-12T06:34:16.045Z,1.12
2018-12-12T06:35:16.459Z,1.06
2018-12-12T06:36:16.872Z,1.16
2018-12-12T06:37:17.848Z,1.07
2018-12-12T06:38:17.813Z,1
2018-12-12T06:39:18.580Z,1
2018-12-12T06:40:19.742Z,1
2018-12-12T06:41:20.706Z,1.04
2018-12-12T06:42:20.416Z,0.96
2018-12-12T06:43:20.856Z,1.02
2018-12-12T06:44:20.989Z,1
2018-12-12T06:45:21.953Z,1.04
2018-12-12T06:46:23.643Z,1.12
2018-12-12T06:47:24.289Z,0.96
2018-12-12T06:48:25.594Z,1.02
2018-12-12T06:49:26.282Z,0.92
2018-12-12T06:50:27.666Z,1.03
2018-12-12T06:51:27.859Z,0.95
2018-12-12T06:52:28.075Z,0.92
2018-12-12T06:53:29.037Z,0.94
2018-12-12T06:54:29.448Z,0.91
2018-12-12T06:55:30.690Z,0.89
2018-12-12T06:56:31.427Z,0.81
2018-12-12T06:57:32.471Z,0.76
2018-12-12T06:58:32.670Z,0.71
2018-12-12T06:59:34.077Z,0.66
2018-12-12T07:00:34.725Z,0.56
2018-12-12T07:01:34.415Z,0.59
2018-12-12T07:02:35.102Z,0.44
2018-12-12T07:03:35.246Z,0.52
2018-12-12T07:04:35.655Z,0.49
2018-12-12T07:05:36.067Z,0.49
2018-12-12T07:06:36.755Z,0.39
2018-12-12T07:07:37.564Z,0.44
2018-12-12T07:08:38.243Z,0.44
2018-12-12T07:09:38.651Z,0.42
2018-12-12T07:10:39.836Z,0.44
2018-12-12T07:11:41.093Z,0.51
2018-12-12T07:12:41.337Z,0.45
2018-12-12T07:13:41.826Z,0.59
2018-12-12T07:14:42.577Z,0.51
2018-12-12T07:15:43.768Z,0.59
2018-12-12T07:16:44.700Z,0.59
2018-12-12T07:17:45.336Z,0.49
2018-12-12T07:18:45.573Z,0.58
2018-12-12T07:19:46.066Z,0.61
2018-12-12T07:20:46.604Z,0.63
2018-12-12T07:21:48.014Z,0.67
2018-12-12T07:22:49.877Z,0.66
2018-12-12T07:23:50.355Z,0.71
2018-12-12T07:24:50.490Z,0.73
2018-12-12T07:25:51.898Z,0.74
2018-12-12T07:26:53.035Z,0.73
2018-12-12T07:27:53.551Z,0.84
2018-12-12T07:28:53.993Z,0.76
2018-12-12T07:29:55.127Z,0.85
2018-12-12T07:30:55.985Z,0.81
2018-12-12T07:31:56.522Z,0.88
2018-12-12T07:32:57.207Z,0.81
2018-12-12T07:34:02.708Z,0.81
2018-12-12T07:35:02.959Z,0.77
2018-12-12T07:36:03.650Z,0.82
2018-12-12T07:37:04.628Z,0.84
2018-12-12T07:38:05.597Z,0.88
2018-12-12T07:39:06.035Z,0.82
2018-12-12T07:40:07.252Z,0.76
2018-12-12T07:41:07.902Z,0.76
2018-12-12T07:42:08.318Z,0.78
2018-12-12T07:43:09.024Z,0.77
2018-12-12T07:44:09.742Z,0.85
2018-12-12T07:45:10.262Z,0.82
2018-12-12T07:46:10.675Z,0.82
2018-12-12T07:47:12.089Z,0.88
2018-12-12T07:48:12.819Z,0.95
2018-12-12T07:49:13.509Z,0.88
2018-12-12T07:50:13.930Z,0.99
2018-12-12T07:51:14.746Z,0.99
2018-12-12T07:52:16.193Z,0.94
2018-12-12T07:53:17.883Z,1.13
2018-12-12T07:54:18.022Z,1.03
2018-12-12T07:55:18.714Z,1.2
2018-12-12T07:56:19.882Z,1.14
2018-12-12T07:57:19.951Z,1.2
2018-12-12T07:58:20.093Z,1.3
2018-12-12T07:59:21.224Z,1.32
2018-12-12T08:00:22.359Z,1.43
2018-12-12T08:01:24.036Z,1.52
2018-12-12T08:02:24.732Z,1.56
2018-12-12T08:03:24.869Z,1.6
2018-12-12T08:04:26.129Z,1.6
2018-12-12T08:05:26.266Z,1.81
2018-12-12T08:06:26.681Z,1.74
2018-12-12T08:07:27.432Z,1.85
2018-12-12T08:08:27.848Z,1.82
2018-12-12T08:09:29.546Z,1.89
2018-12-12T08:10:29.787Z,1.88
2018-12-12T08:11:30.163Z,1.85
2018-12-12T08:12:30.575Z,1.93
2018-12-12T08:13:30.992Z,2.01
2018-12-12T08:14:31.963Z,2.21
2018-12-12T08:15:32.661Z,2.22
2018-12-12T08:16:33.549Z,2.22
2018-12-12T08:17:34.013Z,2.22
2018-12-12T08:18:34.793Z,2.12
2018-12-12T08:19:35.484Z,1.97
2018-12-12T08:20:35.996Z,2.04
2018-12-12T08:21:36.574Z,2.07
2018-12-12T08:22:37.713Z,2.15
2018-12-12T08:23:38.682Z,2.18
2018-12-12T08:24:39.414Z,2.28
2018-12-12T08:25:40.549Z,2.32
2018-12-12T08:26:41.244Z,2.32
2018-12-12T08:27:41.383Z,2.32
2018-12-12T08:28:41.796Z,2.34
2018-12-12T08:29:42.498Z,2.33
2018-12-12T08:30:43.703Z,2.44
2018-12-12T08:31:43.973Z,2.4
2018-12-12T08:32:45.220Z,2.52
2018-12-12T08:33:45.637Z,2.69
2018-12-12T08:34:46.611Z,2.73
2018-12-12T08:35:47.708Z,2.91
2018-12-12T08:36:48.459Z,2.83
2018-12-12T08:37:50.152Z,3.13
2018-12-12T08:38:51.130Z,3.22
2018-12-12T08:39:51.579Z,3.22
2018-12-12T08:40:52.600Z,3.53
2018-12-12T08:41:54.072Z,3.34
2018-12-12T08:42:55.119Z,3.3
2018-12-12T08:43:55.771Z,3.33
2018-12-12T08:44:56.135Z,3.46
2018-12-12T08:45:57.284Z,3.43
2018-12-12T08:46:57.254Z,3.59
2018-12-12T08:47:58.257Z,3.61
2018-12-12T08:48:59.108Z,3.68
2018-12-12T08:50:00.965Z,3.71
2018-12-12T08:51:00.958Z,3.71
2018-12-12T08:52:01.734Z,3.73
2018-12-12T08:53:02.705Z,3.84
2018-12-12T08:54:02.896Z,4
2018-12-12T08:55:03.869Z,4.13
2018-12-12T08:56:04.688Z,4.09
2018-12-12T08:57:05.104Z,3.91
2018-12-12T08:58:06.521Z,4
2018-12-12T08:59:11.279Z,3.89
2018-12-12T08:59:18.425Z,3.94
2018-12-12T09:00:19.452Z,3.96
2018-12-12T09:01:19.869Z,4.03
2018-12-12T09:02:20.563Z,4.04
2018-12-12T09:03:21.980Z,4.1
2018-12-12T09:04:23.398Z,4.09
2018-12-12T09:05:23.819Z,3.89
2018-12-12T09:06:24.020Z,3.86
2018-12-12T09:07:25.432Z,3.71
2018-12-12T09:08:26.421Z,3.68
2018-12-12T09:09:27.766Z,3.7
2018-12-12T09:10:28.884Z,3.64
2018-12-12T09:11:29.863Z,3.45
2018-12-12T09:12:30.283Z,3.43
2018-12-12T09:13:30.439Z,3.45
2018-12-12T09:14:31.855Z,3.09
2018-12-12T09:15:32.660Z,3.18
2018-12-12T09:16:32.936Z,2.91
2018-12-12T09:17:33.352Z,2.93
2018-12-12T09:18:33.761Z,2.9
2018-12-12T09:19:34.739Z,2.87
2018-12-12T09:20:36.251Z,2.47
2018-12-12T09:21:36.881Z,2.4
2018-12-12T09:22:37.302Z,2.43
2018-12-12T09:23:38.088Z,2.46
2018-12-12T09:24:39.587Z,2.57
2018-12-12T09:25:40.575Z,2.62
2018-12-12T09:26:40.993Z,2.65
2018-12-12T09:27:41.685Z,2.68
2018-12-12T09:28:42.658Z,2.75
2018-12-12T09:29:43.337Z,2.8
2018-12-12T09:30:44.812Z,2.73
2018-12-12T09:31:45.494Z,2.75
2018-12-12T09:32:46.181Z,2.79
2018-12-12T09:33:47.151Z,2.69
2018-12-12T09:34:47.128Z,2.7
2018-12-12T09:35:47.263Z,2.76
2018-12-12T09:36:47.779Z,2.69
2018-12-12T09:37:49.421Z,2.72
2018-12-12T09:38:50.343Z,2.68
2018-12-12T09:39:51.515Z,2.7
2018-12-12T09:40:51.649Z,2.7
2018-12-12T09:41:52.067Z,2.75
2018-12-12T09:42:53.207Z,2.85
2018-12-12T09:43:53.629Z,2.85
2018-12-12T09:44:54.046Z,2.76
2018-12-12T09:45:55.013Z,2.69
2018-12-12T09:46:55.431Z,2.73
2018-12-12T09:47:55.571Z,2.65
2018-12-12T09:48:56.545Z,2.7
2018-12-12T09:49:56.684Z,2.72
2018-12-12T09:50:57.584Z,2.68
2018-12-12T09:51:09.894Z,2.72
2018-12-12T09:52:10.735Z,2.73
2018-12-12T09:53:11.157Z,2.77
2018-12-12T09:54:11.849Z,2.87
2018-12-12T09:55:13.194Z,2.87
2018-12-12T09:56:13.022Z,2.73
2018-12-12T09:57:13.159Z,2.77
2018-12-12T09:58:13.864Z,2.65
2018-12-12T09:59:14.836Z,2.76
2018-12-12T10:00:15.255Z,2.7
2018-12-12T10:01:15.973Z,2.79
2018-12-12T10:02:16.840Z,2.72
2018-12-12T10:03:17.267Z,2.72
2018-12-12T10:04:18.298Z,2.72
2018-12-12T10:05:19.296Z,2.7
2018-12-12T10:06:19.201Z,2.72
2018-12-12T10:07:19.449Z,2.75
2018-12-12T10:08:20.869Z,2.7
2018-12-12T10:09:21.836Z,2.75
2018-12-12T10:10:22.255Z,2.69
2018-12-12T10:11:22.732Z,2.69
2018-12-12T10:12:23.613Z,2.7
2018-12-12T10:13:24.028Z,2.61
2018-12-12T10:14:24.447Z,2.7
2018-12-12T10:15:24.859Z,2.55
2018-12-12T10:16:25.275Z,2.55
2018-12-12T10:17:26.722Z,2.69
2018-12-12T10:18:26.971Z,2.68
2018-12-12T10:19:27.382Z,2.69
2018-12-12T10:20:27.811Z,2.65
2018-12-12T10:21:28.235Z,2.7
2018-12-12T10:22:29.100Z,2.69
2018-12-12T10:23:29.796Z,2.7
2018-12-12T10:24:31.490Z,2.68
2018-12-12T10:25:31.745Z,2.73
2018-12-12T10:26:32.447Z,2.72
2018-12-12T10:27:33.612Z,2.73
2018-12-12T10:28:34.749Z,2.72
2018-12-12T10:29:35.892Z,2.72
2018-12-12T10:30:37.260Z,2.76
2018-12-12T10:31:37.816Z,2.85
2018-12-12T10:32:40.845Z,2.68
2018-12-12T10:33:40.098Z,2.61
2018-12-12T10:34:41.369Z,2.52
2018-12-12T10:35:41.717Z,2.54
2018-12-12T10:36:42.761Z,2.57
2018-12-12T10:37:42.830Z,2.57
2018-12-12T10:38:44.100Z,2.65
2018-12-12T10:39:44.896Z,2.61
2018-12-12T10:40:45.188Z,2.68
2018-12-12T10:41:45.723Z,2.64
2018-12-12T10:42:46.280Z,2.64
2018-12-12T10:43:47.265Z,2.72
2018-12-12T10:44:47.658Z,2.7
2018-12-12T10:45:48.083Z,2.7
2018-12-12T10:46:48.083Z,2.76
2018-12-12T10:47:48.834Z,2.75
2018-12-12T10:48:49.662Z,2.76
2018-12-12T10:49:49.982Z,2.9
2018-12-12T10:50:50.981Z,2.75
2018-12-12T10:51:52.116Z,2.69
2018-12-12T10:52:53.226Z,2.69
2018-12-12T10:53:54.199Z,2.77
2018-12-12T10:54:55.456Z,2.75
2018-12-12T10:55:55.151Z,2.75
2018-12-12T10:56:55.859Z,2.75
2018-12-12T10:58:00.873Z,2.73
2018-12-12T10:58:09.404Z,2.79
2018-12-12T10:59:09.306Z,2.82
2018-12-12T11:00:14.348Z,2.91
2018-12-12T11:01:16.637Z,3.09
2018-12-12T11:02:16.935Z,3.53
2018-12-12T11:03:17.632Z,3.67
2018-12-12T11:04:18.620Z,3.59
2018-12-12T11:05:19.602Z,3.48
2018-12-12T11:06:20.583Z,3.33
2018-12-12T11:07:22.547Z,3.34
2018-12-12T11:08:22.676Z,3.3
2018-12-12T11:09:23.813Z,3.29
2018-12-12T11:10:24.510Z,3.24
2018-12-12T11:11:26.256Z,3.55
2018-12-12T11:12:26.391Z,3.53
2018-12-12T11:13:27.120Z,3.49
2018-12-12T11:14:27.533Z,3.56
2018-12-12T11:15:27.952Z,3.52
2018-12-12T11:16:29.233Z,3.56
2018-12-12T11:17:30.308Z,3.61
2018-12-12T11:18:31.742Z,3.59
2018-12-12T11:19:32.247Z,3.56
2018-12-12T11:20:32.789Z,3.59
2018-12-12T11:21:33.207Z,3.66
2018-12-12T11:22:33.623Z,3.68
2018-12-12T11:23:34.316Z,3.67
2018-12-12T11:24:35.568Z,3.71
2018-12-12T11:25:35.985Z,3.68
2018-12-12T11:26:36.444Z,3.71
2018-12-12T11:27:36.626Z,3.81
2018-12-12T11:28:39.000Z,3.67
2018-12-12T11:29:38.149Z,3.59
2018-12-12T11:30:38.570Z,3.45
2018-12-12T11:31:43.013Z,3.31
2018-12-12T11:32:41.063Z,3.3
2018-12-12T11:33:41.842Z,3.33
2018-12-12T11:34:42.849Z,3.41
2018-12-12T11:35:43.990Z,3.37
2018-12-12T11:36:44.965Z,3.27
2018-12-12T11:37:45.142Z,3.22
2018-12-12T11:38:46.560Z,3.22
2018-12-12T11:39:47.680Z,3.24
2018-12-12T11:40:49.372Z,3.24
2018-12-12T11:41:50.427Z,3.24
2018-12-12T11:42:50.455Z,3.18
2018-12-12T11:43:51.149Z,3.27
2018-12-12T11:44:52.127Z,3.41
2018-12-12T11:45:53.101Z,3.21
2018-12-12T11:46:53.078Z,3.31
2018-12-12T11:47:53.263Z,3.33
2018-12-12T11:48:54.235Z,3.45
2018-12-12T11:49:55.342Z,3.46
2018-12-12T11:50:55.482Z,3.46
2018-12-12T11:51:56.170Z,3.48
2018-12-12T11:52:56.603Z,3.55
2018-12-12T11:53:57.399Z,3.66
2018-12-12T11:54:57.557Z,3.63
2018-12-12T11:55:57.974Z,3.77
2018-12-12T11:56:59.106Z,3.81
2018-12-12T11:57:59.860Z,3.7
2018-12-12T11:59:04.133Z,3.86
2018-12-12T11:59:15.879Z,3.84
2018-12-12T11:59:28.547Z,3.82
2018-12-12T11:59:40.047Z,3.81
2018-12-12T11:59:53.287Z,3.88
2018-12-12T12:00:05.474Z,3.95
2018-12-12T12:00:15.683Z,3.92
2018-12-12T12:00:27.929Z,3.86
2018-12-12T12:00:40.138Z,3.99
2018-12-12T12:01:42.213Z,3.95
2018-12-12T12:01:50.748Z,3.95
2018-12-12T12:02:51.173Z,4.03
2018-12-12T12:03:58.109Z,4.18
2018-12-12T12:04:04.259Z,4.14
2018-12-12T12:05:05.206Z,4.36
2018-12-12T12:06:05.672Z,4.49
2018-12-12T12:07:06.223Z,4.48
2018-12-12T12:08:07.096Z,4.61
2018-12-12T12:09:08.168Z,4.75
2018-12-12T12:10:09.196Z,4.82
2018-12-12T12:11:10.180Z,4.89
2018-12-12T12:12:10.472Z,4.9
2018-12-12T12:13:10.889Z,4.97
2018-12-12T12:14:11.485Z,5.04
2018-12-12T12:15:12.545Z,5.22
2018-12-12T12:16:13.243Z,5.29
2018-12-12T12:17:13.669Z,5.51
2018-12-12T12:18:14.093Z,5.59
2018-12-12T12:19:14.790Z,5.67
2018-12-12T12:20:16.060Z,5.83
2018-12-12T12:21:15.758Z,6.02
2018-12-12T12:22:17.509Z,6.07
2018-12-12T12:23:17.937Z,6.07
2018-12-12T12:24:19.043Z,6.19
2018-12-12T12:25:19.415Z,6.34
2018-12-12T12:26:19.838Z,6.43
2018-12-12T12:27:21.019Z,6.71
2018-12-12T12:28:21.890Z,6.64
2018-12-12T12:29:22.451Z,6.71
2018-12-12T12:30:23.305Z,6.7
2018-12-12T12:31:24.769Z,6.71
2018-12-12T12:32:27.394Z,6.92
2018-12-12T12:32:36.964Z,7.05
2018-12-12T12:33:37.885Z,7.21
2018-12-12T12:34:38.309Z,7.25
2018-12-12T12:35:39.011Z,7.37
2018-12-12T12:36:40.592Z,7.41
2018-12-12T12:37:41.406Z,7.32
2018-12-12T12:38:43.123Z,7.22
2018-12-12T12:39:43.182Z,7.18
2018-12-12T12:40:43.606Z,7.23
2018-12-12T12:41:45.030Z,7.13
2018-12-12T12:42:46.034Z,6.97
2018-12-12T12:43:46.231Z,6.78
2018-12-12T12:44:46.933Z,6.64
2018-12-12T12:45:47.961Z,6.59
2018-12-12T12:46:48.107Z,6.68
2018-12-12T12:47:48.808Z,6.59
2018-12-12T12:48:49.894Z,6.54
2018-12-12T12:49:50.189Z,6.64
2018-12-12T12:50:51.423Z,6.57
2018-12-12T12:51:51.915Z,6.64
2018-12-12T12:52:53.093Z,6.71
2018-12-12T12:53:53.382Z,6.7
2018-12-12T12:54:53.805Z,6.72
2018-12-12T12:55:54.245Z,6.83
2018-12-12T12:56:54.956Z,6.87
2018-12-12T12:57:55.376Z,6.96
2018-12-12T12:58:56.121Z,7.01
2018-12-12T12:59:56.425Z,7.1
2018-12-12T13:01:00.470Z,7.18
2018-12-12T13:02:00.864Z,7.18
2018-12-12T13:02:12.238Z,7.14
2018-12-12T13:03:12.403Z,6.97
2018-12-12T13:04:13.112Z,6.9
2018-12-12T13:05:14.253Z,6.97
2018-12-12T13:06:14.677Z,6.97
2018-12-12T13:07:15.376Z,7.26
2018-12-12T13:08:19.642Z,7.26
2018-12-12T13:08:28.479Z,7.31
2018-12-12T13:09:28.701Z,7.33
2018-12-12T13:10:30.432Z,7.22
2018-12-12T13:11:30.647Z,7.05
2018-12-12T13:12:31.134Z,7
2018-12-12T13:13:32.074Z,6.8
2018-12-12T13:14:36.413Z,6.93
2018-12-12T13:14:46.565Z,6.97
2018-12-12T13:15:47.153Z,6.87
2018-12-12T13:16:47.622Z,7.05
2018-12-12T13:17:48.601Z,7.13
2018-12-12T13:18:49.301Z,7.18
2018-12-12T13:19:49.728Z,7.19
2018-12-12T13:20:50.431Z,7.23
2018-12-12T13:21:50.863Z,7.41
2018-12-12T13:22:52.007Z,7.4
2018-12-12T13:23:52.708Z,7.47
2018-12-12T13:24:56.778Z,7.31
2018-12-12T13:25:55.565Z,7.28
2018-12-12T13:26:55.626Z,7.23
2018-12-12T13:27:56.327Z,7.23
2018-12-12T13:28:57.131Z,7.26
2018-12-12T13:29:58.107Z,7.23
2018-12-12T13:30:57.826Z,7.18
2018-12-12T13:32:00.448Z,7.14
2018-12-12T13:33:01.478Z,7.15
2018-12-12T13:34:01.811Z,7.08
2018-12-12T13:35:06.109Z,7.1
2018-12-12T13:36:05.048Z,7.13
2018-12-12T13:37:06.257Z,7.26
2018-12-12T13:38:07.238Z,7.44
2018-12-12T13:39:06.937Z,7.41
2018-12-12T13:40:07.916Z,7.51
2018-12-12T13:41:08.618Z,7.61
2018-12-12T13:42:08.819Z,7.61
2018-12-12T13:43:09.515Z,7.53
2018-12-12T13:44:10.007Z,7.56
2018-12-12T13:45:10.713Z,7.43
2018-12-12T13:46:11.540Z,7.08
2018-12-12T13:47:18.618Z,7.05
2018-12-12T13:47:24.350Z,7.03
2018-12-12T13:48:25.019Z,6.6
2018-12-12T13:49:26.804Z,6.43
2018-12-12T13:50:27.239Z,6.6
2018-12-12T13:51:27.943Z,6.75
2018-12-12T13:52:28.656Z,6.8
2018-12-12T13:53:29.352Z,6.89
2018-12-12T13:54:29.772Z,6.85
2018-12-12T13:55:30.192Z,6.9
2018-12-12T13:56:30.633Z,6.86
2018-12-12T13:57:31.056Z,6.83
2018-12-12T13:58:31.900Z,6.8
2018-12-12T13:59:33.325Z,6.83
2018-12-12T14:00:39.986Z,6.68
2018-12-12T14:00:46.085Z,6.71
2018-12-12T14:01:46.927Z,6.8
2018-12-12T14:02:49.344Z,6.9
2018-12-12T14:03:52.022Z,7.01
2018-12-12T14:04:51.999Z,7
2018-12-12T14:05:52.139Z,7
2018-12-12T14:06:53.393Z,6.83
2018-12-12T14:07:53.818Z,6.78
2018-12-12T14:08:54.786Z,6.49
2018-12-12T14:09:55.486Z,6.49
2018-12-12T14:10:57.179Z,6.49
2018-12-12T14:11:57.307Z,6.56
2018-12-12T14:12:58.008Z,6.68
2018-12-12T14:13:58.155Z,6.68
2018-12-12T14:14:58.870Z,6.59
2018-12-12T14:15:59.342Z,6.49
2018-12-12T14:17:00.579Z,6.32
2018-12-12T14:18:00.300Z,6.19
2018-12-12T14:19:02.658Z,6.1
2018-12-12T14:20:06.698Z,6.02
2018-12-12T14:20:15.934Z,6.05
2018-12-12T14:21:15.145Z,6.12
2018-12-12T14:22:16.850Z,5.99
2018-12-12T14:23:17.273Z,6.05
2018-12-12T14:24:18.253Z,6.02
2018-12-12T14:25:18.676Z,5.88
2018-12-12T14:26:19.650Z,5.91
2018-12-12T14:27:20.067Z,6.06
2018-12-12T14:28:21.225Z,6.02
2018-12-12T14:29:21.652Z,6.02
2018-12-12T14:30:23.067Z,6.07
2018-12-12T14:31:25.020Z,6.01
2018-12-12T14:32:28.194Z,5.98
2018-12-12T14:32:39.768Z,5.94
2018-12-12T14:32:53.080Z,5.95
2018-12-12T14:33:51.264Z,5.9
2018-12-12T14:34:51.473Z,5.98
2018-12-12T14:35:51.670Z,5.81
2018-12-12T14:36:52.645Z,5.61
2018-12-12T14:37:53.900Z,5.51
2018-12-12T14:38:54.323Z,5.44
2018-12-12T14:39:55.744Z,5.43
2018-12-12T14:40:56.216Z,5.36
2018-12-12T14:41:56.800Z,5.26
2018-12-12T14:42:57.780Z,5.1
2018-12-12T14:43:59.440Z,4.9
2018-12-12T14:44:59.861Z,4.92
2018-12-12T14:46:00.557Z,4.78
2018-12-12T14:47:01.249Z,4.68
2018-12-12T14:48:01.948Z,4.66
2018-12-12T14:49:02.657Z,4.53
2018-12-12T14:50:05.850Z,4.43
2018-12-12T14:51:05.302Z,4.52
2018-12-12T14:52:05.002Z,4.45
2018-12-12T14:53:04.971Z,4.34
2018-12-12T14:54:06.165Z,4.25
2018-12-12T14:55:06.887Z,4.12
2018-12-12T14:56:08.356Z,4.13
2018-12-12T14:57:08.774Z,4.07
2018-12-12T14:58:09.185Z,4.09
2018-12-12T14:59:10.442Z,4.07
2018-12-12T15:00:14.781Z,3.94
2018-12-12T15:00:22.903Z,3.96
2018-12-12T15:01:24.285Z,3.7
2018-12-12T15:02:24.975Z,3.71
2018-12-12T15:03:27.731Z,3.7
2018-12-12T15:04:26.438Z,3.73
2018-12-12T15:05:27.413Z,3.68
2018-12-12T15:06:28.669Z,3.88
2018-12-12T15:07:28.803Z,3.84
2018-12-12T15:08:30.577Z,3.82
2018-12-12T15:09:30.996Z,3.89
2018-12-12T15:10:31.962Z,3.73
2018-12-12T15:11:32.379Z,3.7
2018-12-12T15:12:33.078Z,3.71
2018-12-12T15:13:34.051Z,3.66
2018-12-12T15:14:34.250Z,3.71
2018-12-12T15:15:34.661Z,3.66
2018-12-12T15:16:35.447Z,3.7
2018-12-12T15:17:35.863Z,3.55
2018-12-12T15:18:36.280Z,3.55
2018-12-12T15:19:37.973Z,3.59
2018-12-12T15:20:39.026Z,3.45
2018-12-12T15:21:39.827Z,3.41
2018-12-12T15:22:39.969Z,3.45
2018-12-12T15:23:40.936Z,3.4
2018-12-12T15:24:41.142Z,3.37
2018-12-12T15:25:41.557Z,3.31
2018-12-12T15:26:42.257Z,3.3
2018-12-12T15:27:44.930Z,3.27
2018-12-12T15:28:45.659Z,3.24
2018-12-12T15:29:47.349Z,3.05
2018-12-12T15:30:48.550Z,2.9
2018-12-12T15:31:49.221Z,2.9
2018-12-12T15:32:50.681Z,2.82
2018-12-12T15:33:51.625Z,2.7
2018-12-12T15:34:52.064Z,2.58
2018-12-12T15:35:53.626Z,2.68
2018-12-12T15:36:53.965Z,2.7
2018-12-12T15:37:54.388Z,2.7
2018-12-12T15:38:55.796Z,2.61
2018-12-12T15:39:55.928Z,2.59
2018-12-12T15:40:09.383Z,2.59
2018-12-12T15:41:08.541Z,2.57
2018-12-12T15:42:08.953Z,2.54
2018-12-12T15:43:09.090Z,2.51
2018-12-12T15:44:09.785Z,2.61
2018-12-12T15:45:10.949Z,2.58
2018-12-12T15:46:11.643Z,2.69
2018-12-12T15:47:12.338Z,2.59
2018-12-12T15:48:12.648Z,2.43
2018-12-12T15:49:13.610Z,2.52
2018-12-12T15:50:13.296Z,2.46
2018-12-12T15:51:14.041Z,2.44
2018-12-12T15:52:14.456Z,2.47
2018-12-12T15:53:15.751Z,2.37
2018-12-12T15:54:16.279Z,2.4
2018-12-12T15:55:16.992Z,2.51
2018-12-12T15:56:17.639Z,2.55
2018-12-12T15:57:18.289Z,2.59
2018-12-12T15:58:18.295Z,2.52
2018-12-12T15:59:19.516Z,2.44
2018-12-12T16:00:20.109Z,2.54
2018-12-12T16:01:20.958Z,2.43
2018-12-12T16:02:21.651Z,2.41
2018-12-12T16:03:26.269Z,2.51
2018-12-12T16:03:36.190Z,2.5
2018-12-12T16:04:35.848Z,2.52
2018-12-12T16:05:37.265Z,2.54
2018-12-12T16:06:37.508Z,2.57
2018-12-12T16:07:39.476Z,2.52
2018-12-12T16:08:40.449Z,2.44
2018-12-12T16:09:41.693Z,2.41
2018-12-12T16:10:42.224Z,2.33
2018-12-12T16:11:42.507Z,2.25
2018-12-12T16:12:43.471Z,2.12
2018-12-12T16:13:44.157Z,2.14
2018-12-12T16:14:44.697Z,2.1
2018-12-12T16:15:45.387Z,2.21
2018-12-12T16:16:49.810Z,2.22
2018-12-12T16:17:01.214Z,2.22
2018-12-12T16:17:59.596Z,2.21
2018-12-12T16:19:01.284Z,2.23
2018-12-12T16:20:04.443Z,2.1
2018-12-12T16:21:02.465Z,2.22
2018-12-12T16:22:07.353Z,2.23
2018-12-12T16:22:18.741Z,2.28
2018-12-12T16:22:30.471Z,2.23
2018-12-12T16:22:43.865Z,2.28
2018-12-12T16:22:55.547Z,2.21
2018-12-12T16:23:06.095Z,2.22
2018-12-12T16:23:18.029Z,2.21
2018-12-12T16:24:18.307Z,2.21
2018-12-12T16:25:18.997Z,2.22
2018-12-12T16:26:19.191Z,2.18
2018-12-12T16:27:20.602Z,2.08
2018-12-12T16:28:21.013Z,2.1
2018-12-12T16:29:21.437Z,2.05
2018-12-12T16:30:22.568Z,2
2018-12-12T16:31:23.539Z,1.93
2018-12-12T16:32:23.670Z,1.81
2018-12-12T16:33:28.995Z,1.81
2018-12-12T16:33:38.811Z,1.81
2018-12-12T16:33:51.205Z,1.81
2018-12-12T16:34:01.521Z,1.75
2018-12-12T16:35:01.430Z,1.74
2018-12-12T16:36:05.311Z,1.78
2018-12-12T16:36:16.453Z,1.75
2018-12-12T16:36:28.696Z,1.79
2018-12-12T16:36:41.724Z,1.82
2018-12-12T16:36:51.922Z,1.75
2018-12-12T16:37:51.758Z,1.82
2018-12-12T16:38:52.179Z,1.75
2018-12-12T16:39:53.143Z,1.74
2018-12-12T16:40:53.555Z,1.75
2018-12-12T16:41:53.963Z,1.79
2018-12-12T16:42:55.096Z,1.79
2018-12-12T16:43:55.786Z,1.76
2018-12-12T16:44:56.916Z,1.76
2018-12-12T16:45:57.881Z,1.79
2018-12-12T16:46:58.288Z,1.82
2018-12-12T16:47:58.985Z,1.76
2018-12-12T16:48:59.397Z,1.79
2018-12-12T16:49:59.804Z,1.82
2018-12-12T16:51:00.775Z,1.82
2018-12-12T16:52:02.076Z,1.81
2018-12-12T16:53:02.042Z,1.84
2018-12-12T16:54:03.031Z,1.74
2018-12-12T16:55:03.727Z,1.81
2018-12-12T16:56:04.142Z,1.71
2018-12-12T16:57:05.553Z,1.76
2018-12-12T16:58:06.097Z,1.78
2018-12-12T16:59:07.508Z,1.63
2018-12-12T17:00:08.222Z,1.66
2018-12-12T17:01:08.630Z,1.75
2018-12-12T17:02:09.626Z,1.74
2018-12-12T17:03:09.758Z,1.78
2018-12-12T17:04:14.158Z,1.79
2018-12-12T17:04:22.757Z,1.75
2018-12-12T17:05:23.306Z,1.75
2018-12-12T17:06:23.280Z,1.71
2018-12-12T17:07:24.687Z,1.82
2018-12-12T17:08:25.107Z,1.75
2018-12-12T17:09:25.514Z,1.76
2018-12-12T17:10:26.484Z,1.82
2018-12-12T17:11:26.614Z,1.71
2018-12-12T17:12:27.584Z,1.78
2018-12-12T17:13:28.328Z,1.76
2018-12-12T17:14:31.083Z,1.71
2018-12-12T17:15:30.942Z,1.74
2018-12-12T17:16:32.630Z,1.63
2018-12-12T17:17:33.045Z,1.61
2018-12-12T17:18:34.175Z,1.7
2018-12-12T17:19:36.074Z,1.66
2018-12-12T17:20:36.035Z,1.67
2018-12-12T17:21:36.720Z,1.74
2018-12-12T17:22:37.408Z,1.75
2018-12-12T17:23:38.093Z,1.66
2018-12-12T17:24:38.226Z,1.6
2018-12-12T17:25:39.142Z,1.75
2018-12-12T17:26:40.108Z,1.76
2018-12-12T17:27:40.798Z,1.68
2018-12-12T17:28:41.484Z,1.74
2018-12-12T17:29:42.457Z,1.74
2018-12-12T17:30:42.873Z,1.74
2018-12-12T17:31:43.563Z,1.67
2018-12-12T17:32:43.969Z,1.74
2018-12-12T17:33:48.907Z,1.64
2018-12-12T17:34:46.934Z,1.5
2018-12-12T17:35:48.072Z,1.61
2018-12-12T17:36:49.068Z,1.56
2018-12-12T17:37:49.754Z,1.68
2018-12-12T17:38:50.493Z,1.78
2018-12-12T17:39:50.622Z,1.76
2018-12-12T17:40:52.968Z,1.81
2018-12-12T17:41:52.690Z,1.78
2018-12-12T17:42:53.100Z,1.68
2018-12-12T17:43:53.666Z,1.76
2018-12-12T17:44:54.218Z,1.71
2018-12-12T17:45:54.616Z,1.85
2018-12-12T17:46:55.308Z,1.79
2018-12-12T17:47:56.274Z,1.79
2018-12-12T17:48:56.968Z,1.92
2018-12-12T17:49:57.378Z,1.86
2018-12-12T17:50:58.396Z,1.85
2018-12-12T17:51:58.807Z,1.98
2018-12-12T17:52:59.496Z,1.98
2018-12-12T17:54:00.628Z,1.93
2018-12-12T17:55:01.760Z,1.93
2018-12-12T17:56:02.325Z,2.03
2018-12-12T17:57:03.347Z,1.97
2018-12-12T17:58:03.761Z,1.93
2018-12-12T17:59:04.891Z,2.01
2018-12-12T18:00:06.027Z,1.95
2018-12-12T18:01:06.440Z,1.95
2018-12-12T18:02:07.420Z,1.97
2018-12-12T18:03:07.662Z,2
2018-12-12T18:04:09.734Z,1.93
2018-12-12T18:05:23.937Z,2
2018-12-12T18:06:22.208Z,2.03
2018-12-12T18:07:22.671Z,2.03